Weather at Hazen Municipal Airport - David Duch Field

Public forecast

Using degrees Fahrenheit for public forecast. Weather courtesy of forecast.io.

Closest aviation weather report (METAR) to Hazen Municipal Airport - David Duch Field

Closest report is Stuttgart Municipal Airport / Carl Humphrey Field, 10.1 nm (18.7 km) SSE. Retrieved 2020/09/26 00:56 UTC (30 minutes ago):

KSGT 260056Z AUTO 17003KT 10SM CLR 19/17 A2999 RMK AO2 SLP156 T01940167

Closest aviation forecast (TAF) to Hazen Municipal Airport - David Duch Field

Closest forecast is Little Rock Air Force Base, 26.9 nm (49.9 km) WNW. Retrieved 2020-09-26 23:48 UTC (0 seconds ago):

TAF KLRF 252300Z 2523/2705 16006KT 9999 SCT020 QNH2993INS BECMG 2602/2603 17006KT 9000 BR SCT010 BKN020 QNH2995INS BECMG 2612/2613 19006KT 9999 NSW SCT030 QNH2996INS TX25/2621Z TN16/2609Z